• Join FlightAware (Why Join?)
  • Login
  • US Flag 
05:18PM EDT


 

Airport Tracker/Info


-or-


 

Live Flight TrackerFlight Track Log ✈ SKQ53 ✈ 16-Jun-2013 ✈ KMMU - KBUY

Flight Track Log - Related Links

Times and Time Zones

All times are in EDT time to prevent confusion due to time zone crossing. See the SKQ53 flight status page for this flight to view local times or setup timezone preferences in your user account.

Time Position Orientation Groundspeed Altitude Reporting Facility
EDT Latitude Longitude Course Direction KTS MPH feet Rate Location/Type
06:26AM 40.8000 -74.3500 159° South 154 177 3,500  Level New York TRACON
06:27AM 40.7500 -74.3500 180° South 166 191 4,900 840 Climbing New York TRACON
06:28AM 40.7000 -74.3500 180° South 213 245 5,100 480 Climbing New York TRACON
06:29AM 40.6500 -74.3167 153° Southeast 216 249 5,800 840 Climbing New York TRACON
06:30AM 40.5833 -74.3000 169° South 204 235 6,800 1,080 Climbing New York TRACON
06:31AM 40.5152 -74.7443 155° Southeast  Level Estimated
06:31AM 40.5333 -74.3000 180° South 197 227 8,000  Level New York TRACON
06:33AM 40.4464 -74.2944 177° South 194 223 10,500 1,380 Climbing New York Center
06:34AM 40.3864 -74.2886 176° South 194 223 12,000 1,380 Climbing New York Center
06:35AM 40.3406 -74.2864 178° South 199 229 13,300 1,440 Climbing New York Center
06:36AM 40.2825 -74.2781 174° South 199 229 14,900 1,380 Climbing New York Center
06:37AM 40.2325 -74.2753 178° South 199 229 16,200 1,380 Climbing New York Center
06:38AM 40.1856 -74.3056 206° Southwest 175 201 17,700 900 Climbing New York Center
06:39AM 40.1450 -74.3417 214° Southwest 175 201 18,000 120 Climbing New York Center
06:40AM 40.0956 -74.3881 216° Southwest 208 239 18,000  Level New York Center
06:41AM 40.0483 -74.4314 215° Southwest 226 260 18,000  Level New York Center
06:42AM 39.9969 -74.4831 218° Southwest 231 266 18,000  Level New York Center
06:43AM 39.9386 -74.5394 217° Southwest 231 266 18,000  Level New York Center
06:45AM 39.8283 -74.6378 214° Southwest 234 269 18,000  Level Washington Center
06:46AM 39.7725 -74.6872 214° Southwest 244 281 18,000  Level Washington Center
06:47AM 39.7167 -74.7392 216° Southwest 244 281 18,000  Level Washington Center
06:48AM 39.6567 -74.7936 215° Southwest 244 281 18,000  Level Washington Center
06:49AM 39.6092 -74.8400 217° Southwest 244 281 18,000  Level Washington Center
06:50AM 39.5656 -74.8997 227° Southwest 244 281 18,000  Level Washington Center
06:51AM 39.5139 -74.9567 220° Southwest 239 275 18,000  Level Washington Center
06:52AM 39.4664 -75.0164 224° Southwest 239 275 18,000  Level Washington Center
06:53AM 39.4167 -75.0786 224° Southwest 239 275 18,000  Level Washington Center
06:54AM 39.3667 -75.1378 222° Southwest 239 275 18,000  Level Washington Center
06:55AM 39.3169 -75.1944 221° Southwest 239 275 18,000  Level Washington Center
06:56AM 39.2692 -75.2511 223° Southwest 239 275 18,000  Level Washington Center
06:57AM 39.2214 -75.3103 224° Southwest 239 275 18,000  Level Washington Center
06:58AM 39.1736 -75.3694 224° Southwest 239 275 18,100  Climbing Washington Center
06:59AM 39.1236 -75.4258 221° Southwest 239 275 18,000 -60 Descending Washington Center
07:00AM 39.0736 -75.4900 225° Southwest 239 275 18,000  Level Washington Center
07:01AM 39.0258 -75.5461 222° Southwest 245 282 18,100  Climbing Washington Center
07:02AM 38.9736 -75.6103 224° Southwest 245 282 18,000  Descending Washington Center
07:03AM 38.9236 -75.6717 224° Southwest 245 282 18,100  Climbing Washington Center
07:04AM 38.8736 -75.7275 221° Southwest 250 288 18,000 -60 Descending Washington Center
07:05AM 38.8236 -75.7889 224° Southwest 250 288 18,000  Level Washington Center
07:06AM 38.7733 -75.8500 223° Southwest 250 288 18,000  Level Washington Center
07:07AM 38.7253 -75.9111 225° Southwest 250 288 18,000  Level Washington Center
07:08AM 38.6731 -75.9692 221° Southwest 250 288 18,000  Level Washington Center
07:09AM 38.6206 -76.0247 220° Southwest 250 288 18,000  Level Washington Center
07:10AM 38.5683 -76.0828 221° Southwest 250 288 18,000  Level Washington Center
07:11AM 38.5200 -76.1464 226° Southwest 250 288 18,000  Level Washington Center
07:12AM 38.4739 -76.2017 223° Southwest 250 288 18,100  Climbing Washington Center
07:13AM 38.4217 -76.2594 221° Southwest 250 288 18,000 -60 Descending Washington Center
07:14AM 38.3711 -76.3200 223° Southwest 250 288 18,000  Level Washington Center
07:15AM 38.3228 -76.3778 223° Southwest 250 288 18,000  Level Washington Center
07:16AM 38.2703 -76.4353 221° Southwest 245 282 18,000  Level Washington Center
07:17AM 38.2197 -76.4931 222° Southwest 245 282 18,100  Climbing Washington Center
07:18AM 38.1736 -76.5531 226° Southwest 245 282 18,000 -60 Descending Washington Center
07:19AM 38.1231 -76.6081 221° Southwest 245 282 18,000  Level Washington Center
07:20AM 38.0725 -76.6653 222° Southwest 240 276 18,000  Level Washington Center
07:21AM 38.0261 -76.7200 223° Southwest 240 276 18,000  Level Washington Center
07:22AM 37.9797 -76.7719 221° Southwest 240 276 18,000  Level Washington Center
07:23AM 37.9311 -76.8292 223° Southwest 240 276 18,000  Level Washington Center
07:24AM 37.8825 -76.8861 223° Southwest 240 276 18,000  Level Washington Center
07:25AM 37.8339 -76.9433 223° Southwest 240 276 18,000  Level Washington Center
07:26AM 37.7833 -77.0003 222° Southwest 240 276 18,100  Climbing Washington Center
07:27AM 37.7347 -77.0569 223° Southwest 240 276 18,000 -60 Descending Washington Center
07:28AM 37.6819 -77.1136 220° Southwest 240 276 18,000  Level Washington Center
07:29AM 37.6331 -77.1731 224° Southwest 240 276 18,000  Level Washington Center
07:30AM 37.5822 -77.2297 221° Southwest 240 276 18,000  Level Washington Center
07:31AM 37.5314 -77.2861 221° Southwest 240 276 18,100  Climbing Washington Center
07:32AM 37.4844 -77.3558 230° Southwest 240 276 18,100 -60 Level Washington Center
07:33AM 37.4458 -77.4281 236° Southwest 240 276 18,000 -60 Descending Washington Center
07:34AM 37.4094 -77.4978 237° Southwest 240 276 18,000  Level Washington Center
07:35AM 37.3706 -77.5675 235° Southwest 245 282 18,000  Level Washington Center
07:36AM 37.3361 -77.6344 237° Southwest 245 282 18,000  Level Washington Center
07:37AM 37.2975 -77.7067 236° Southwest 251 289 18,000  Level Washington Center
07:38AM 37.2606 -77.7761 236° Southwest 251 289 18,000  Level Washington Center
07:39AM 37.2239 -77.8453 236° Southwest 251 289 18,000  Level Washington Center
07:40AM 37.1850 -77.9172 236° Southwest 251 289 18,000  Level Washington Center
07:41AM 37.1481 -77.9864 236° Southwest 251 289 18,000 -60 Level Washington Center
07:42AM 37.1092 -78.0556 235° Southwest 257 296 17,900 -360 Descending Washington Center
07:43AM 37.0700 -78.1297 237° Southwest 257 296 17,300 -660 Descending Washington Center
07:44AM 37.0286 -78.2117 238° Southwest 257 296 16,500 -780 Descending Washington Center
07:45AM 36.9875 -78.2883 236° Southwest 257 296 15,800 -840 Descending Washington Center
07:46AM 36.9439 -78.3647 234° Southwest 262 302 14,900 -900 Descending Washington Center
07:47AM 36.9025 -78.4386 235° Southwest 262 302 14,100 -960 Descending Washington Center
07:48AM 36.8589 -78.5228 237° Southwest 262 302 13,000 -1,080 Descending Washington Center
07:49AM 36.8172 -78.5989 236° Southwest 262 302 12,000 -960 Descending Washington Center
07:50AM 36.7736 -78.6725 234° Southwest 262 302 11,100 -960 Descending Washington Center
07:51AM 36.7342 -78.7486 237° Southwest 262 302 10,100 -960 Descending Washington Center
07:52AM 36.6908 -78.8089 228° Southwest 262 302 9,200 -840 Descending Washington Center
07:53AM 36.6306 -78.8764 222° Southwest 262 302 8,400 -780 Descending Washington Center
07:54AM 36.5769 -78.9336 221° Southwest 262 302 7,700 -720 Descending Washington Center
07:55AM 36.5208 -78.9908 219° Southwest 262 302 7,000 -720 Descending Washington Center
07:56AM 36.4672 -79.0453 219° Southwest 262 302 6,300 -720 Descending Washington Center
07:57AM 36.4136 -79.0997 219° Southwest 262 302 5,600 -720 Descending Washington Center
07:59AM 36.3239 -79.1459 203° Southwest  Level FlightAware Approximate
08:06AM 36.0333 -79.4667 231° Southwest  Level FlightAware Approximate
08:07AM 36.0485 -79.4749 231° Southwest  Level Estimated
08:08AM 36.0485 -79.4749 231° Southwest  Level Estimated
08:09AM 36.0485 -79.4749 231° Southwest  Level Estimated
08:10AM 36.0485 -79.4749 231° Southwest  Level Estimated
08:11AM 36.0485 -79.4749 231° Southwest  Level Estimated
08:12AM 36.0485 -79.4749 231° Southwest  Level Estimated